Time;durP1;ratioP1;P1;durP2;ratioP2;P2;SDS_P1;SDS_P2;PMS_P1;PMS_P2;Temp;Humidity;BMP_temperature;BMP_pressure;BME280_temperature;BME280_humidity;BME280_pressure;Samples;Min_cycle;Max_cycle;Signal;HPM_P1;HPM_P2
2022/01/22 00:00:48;;;;;;;9.82;6.00;;;;;;;3.20;86.59;103279.47;5031353;28;20047;-78
2022/01/22 00:03:13;;;;;;;11.40;6.05;;;;;;;3.22;87.19;103285.63;5012544;28;20438;-77
2022/01/22 00:05:39;;;;;;;8.63;6.07;;;;;;;3.22;86.74;103289.13;5014431;28;20036;-77
2022/01/22 00:08:04;;;;;;;15.48;6.57;;;;;;;3.21;86.94;103284.75;5023433;28;20167;-76
2022/01/22 00:10:32;;;;;;;12.60;6.07;;;;;;;3.22;86.69;103290.81;5026261;28;20040;-76
2022/01/22 00:15:28;;;;;;;11.55;5.78;;;;;;;3.23;86.84;103282.25;5050353;28;20041;-77
2022/01/22 00:17:55;;;;;;;9.15;7.00;;;;;;;3.24;87.00;103276.28;5033385;28;20053;-75
2022/01/22 00:20:23;;;;;;;20.90;6.72;;;;;;;3.24;86.44;103271.97;5018890;28;20056;-75
2022/01/22 00:22:50;;;;;;;32.45;8.18;;;;;;;3.24;86.85;103281.44;5035982;28;20032;-76
2022/01/22 00:25:17;;;;;;;16.08;6.53;;;;;;;3.25;86.39;103272.88;5019430;28;20076;-77
2022/01/22 00:27:44;;;;;;;12.55;6.55;;;;;;;3.25;86.79;103273.75;5053763;28;20037;-78
2022/01/22 00:30:14;;;;;;;20.77;7.28;;;;;;;3.26;86.82;103274.66;5034713;28;20121;-77
2022/01/22 00:32:39;;;;;;;16.45;7.38;;;;;;;3.26;87.11;103266.88;5036182;28;20052;-77
2022/01/22 00:35:06;;;;;;;17.60;7.28;;;;;;;3.26;87.10;103272.97;5018821;28;20124;-77
2022/01/22 00:37:34;;;;;;;13.27;6.55;;;;;;;3.29;87.18;103272.25;5019179;28;20087;-77
2022/01/22 00:39:59;;;;;;;16.90;7.00;;;;;;;3.28;86.87;103267.88;5035065;28;20024;-77
2022/01/22 00:42:25;;;;;;;22.90;7.93;;;;;;;3.28;86.43;103262.69;4999904;28;20043;-76
2022/01/22 00:44:51;;;;;;;8.95;6.72;;;;;;;3.29;86.69;103269.66;5038056;28;20111;-77
2022/01/22 00:47:20;;;;;;;10.95;7.97;;;;;;;3.28;87.02;103263.56;5004906;28;20058;-77
2022/01/22 00:49:46;;;;;;;24.13;7.47;;;;;;;3.28;86.60;103268.75;5035659;28;20060;-76
2022/01/22 00:52:12;;;;;;;12.63;6.47;;;;;;;3.28;86.62;103267.88;5035258;28;20055;-76
2022/01/22 00:54:37;;;;;;;12.82;7.30;;;;;;;3.28;87.00;103270.47;5034604;28;20059;-77
2022/01/22 00:57:04;;;;;;;19.08;8.30;;;;;;;3.27;87.07;103266.97;5019180;28;20495;-77
2022/01/22 00:59:29;;;;;;;11.65;7.72;;;;;;;3.29;86.58;103274.84;5018107;28;20040;-77
2022/01/22 01:01:55;;;;;;;14.40;8.98;;;;;;;3.28;87.10;103279.13;5018674;28;20041;-77
2022/01/22 01:04:21;;;;;;;17.58;8.52;;;;;;;3.30;86.67;103281.78;5034874;28;20035;-76
2022/01/22 01:06:48;;;;;;;16.02;8.10;;;;;;;3.28;86.56;103273.94;5016531;28;20037;-78
2022/01/22 01:09:14;;;;;;;16.45;9.90;;;;;;;3.32;86.88;103295.75;5028269;28;20036;-77
2022/01/22 01:12:02;;;;;;;15.73;9.50;;;;;;;3.31;87.14;103291.38;5016741;28;20044;-76
2022/01/22 01:14:38;;;;;;;13.88;8.48;;;;;;;3.30;86.81;103276.63;5013900;28;20123;-76
2022/01/22 01:36:00;;;;;;;11.40;8.88;;;;;;;3.36;86.91;103282.16;5019702;28;20040;-76
2022/01/22 01:38:25;;;;;;;15.23;8.10;;;;;;;3.35;87.49;103275.19;5011072;28;20029;-76
2022/01/22 01:41:04;;;;;;;15.88;9.23;;;;;;;3.36;87.05;103277.00;5000977;28;20074;-76
2022/01/22 01:43:34;;;;;;;16.73;8.85;;;;;;;3.37;87.55;103283.06;5004093;28;20064;-77
2022/01/22 01:46:00;;;;;;;;;;;;;;;3.41;87.55;103285.03;5003665;28;20028;-77
2022/01/22 01:48:29;;;;;;;20.52;8.98;;;;;;;3.40;88.02;103291.88;5035580;28;19977;-76
2022/01/22 01:50:57;;;;;;;15.40;9.52;;;;;;;3.38;88.34;103283.13;5018460;28;20119;-76
2022/01/22 01:53:50;;;;;;;16.35;8.88;;;;;;;3.38;88.13;103279.66;4986086;28;20049;-76
2022/01/22 01:59:01;;;;;;;15.48;8.63;;;;;;;3.36;88.34;103273.47;5046667;28;20070;-76
2022/01/22 02:01:27;;;;;;;14.93;9.02;;;;;;;3.36;88.61;103276.06;4995473;28;20041;-77
2022/01/22 02:03:52;;;;;;;18.30;11.13;;;;;;;3.36;88.63;103277.00;4996126;28;20045;-77
2022/01/22 02:06:18;;;;;;;20.88;9.95;;;;;;;3.36;88.62;103271.81;5016570;28;20033;-76
2022/01/22 02:08:45;;;;;;;20.92;11.60;;;;;;;3.36;89.09;103278.66;5002626;28;20052;-76
2022/01/22 02:11:13;;;;;;;20.83;10.73;;;;;;;3.36;89.06;103282.16;5018150;28;20036;-76
2022/01/22 02:13:57;;;;;;;17.13;10.48;;;;;;;3.36;89.22;103277.00;5034305;28;20029;-76
2022/01/22 02:24:52;;;;;;;17.42;10.65;;;;;;;3.37;89.49;103270.09;5052080;28;20524;-77
2022/01/22 02:27:18;;;;;;;20.48;11.27;;;;;;;3.36;89.38;103270.88;5030899;28;20060;-76
2022/01/22 02:29:44;;;;;;;17.80;11.25;;;;;;;3.37;90.11;103270.97;5052481;28;20043;-76
2022/01/22 02:34:55;;;;;;;15.35;11.85;;;;;;;3.37;89.97;103273.56;5051325;28;20037;-76
2022/01/22 02:37:23;;;;;;;16.23;11.98;;;;;;;3.38;90.15;103275.34;5019444;28;20412;-76
2022/01/22 02:42:35;;;;;;;19.52;11.15;;;;;;;3.38;89.88;103272.78;5036019;28;20044;-76
2022/01/22 02:45:10;;;;;;;33.15;12.98;;;;;;;3.38;90.64;103275.34;4998259;28;20021;-76
2022/01/22 02:47:36;;;;;;;21.52;12.02;;;;;;;3.38;89.95;103272.78;5022137;28;20029;-76
2022/01/22 02:50:04;;;;;;;18.08;12.40;;;;;;;3.38;90.16;103270.19;5014376;28;20092;-77
2022/01/22 02:52:29;;;;;;;22.52;13.20;;;;;;;3.39;89.89;103271.97;5012703;28;20029;-78
2022/01/22 02:54:56;;;;;;;17.75;13.43;;;;;;;3.40;90.38;103273.72;5016738;28;20054;-77
2022/01/22 02:57:22;;;;;;;20.30;13.00;;;;;;;3.40;90.36;103265.97;5023508;28;20040;-77
2022/01/22 02:59:48;;;;;;;24.88;12.73;;;;;;;3.40;90.55;103265.06;5013136;28;20044;-77
2022/01/22 03:02:14;;;;;;;22.45;14.55;;;;;;;3.40;90.06;103275.44;5017730;28;20021;-76
2022/01/22 03:04:40;;;;;;;16.90;13.10;;;;;;;3.40;90.55;103268.56;5016531;28;20489;-77
2022/01/22 03:07:06;;;;;;;24.05;13.80;;;;;;;3.40;90.54;103278.91;5033515;28;20031;-76
2022/01/22 03:09:39;;;;;;;23.98;15.05;;;;;;;3.40;90.56;103278.03;5016873;28;20032;-76
2022/01/22 03:28:00;;;;;;;28.33;15.90;;;;;;;3.44;90.54;103280.00;5026053;28;20043;-77
2022/01/22 03:30:25;;;;;;;26.98;16.15;;;;;;;3.43;90.91;103271.34;5032924;28;20029;-77
2022/01/22 03:32:54;;;;;;;30.95;15.15;;;;;;;3.44;90.83;103274.81;5013165;28;20040;-76
2022/01/22 03:37:52;;;;;;;18.80;16.38;;;;;;;3.44;90.34;103283.47;5038674;28;20592;-75
2022/01/22 03:40:23;;;;;;;24.60;16.08;;;;;;;3.44;90.82;103278.28;5036469;28;20436;-76
2022/01/22 03:42:50;;;;;;;25.80;17.55;;;;;;;3.45;90.90;103279.22;5053444;28;20473;-76
2022/01/22 03:45:19;;;;;;;28.92;17.92;;;;;;;3.46;90.45;103280.97;5035126;28;20480;-76
2022/01/22 03:47:44;;;;;;;32.53;17.60;;;;;;;3.45;90.39;103280.09;5036224;28;20466;-78
2022/01/22 03:50:14;;;;;;;27.45;17.02;;;;;;;3.46;90.56;103283.56;5037349;28;20035;-78
2022/01/22 03:52:41;;;;;;;23.10;17.67;;;;;;;3.45;90.90;103282.69;5036403;28;20037;-76
2022/01/22 03:55:10;;;;;;;26.13;16.50;;;;;;;3.45;90.77;103282.69;5036440;28;20040;-77
2022/01/22 03:57:36;;;;;;;23.65;17.60;;;;;;;3.47;90.37;103283.66;5021753;28;20036;-75
2022/01/22 04:00:07;;;;;;;38.20;19.35;;;;;;;3.48;90.87;103287.16;5011334;28;20037;-75
2022/01/22 04:05:17;;;;;;;37.53;17.88;;;;;;;3.48;90.55;103279.38;5006819;28;20064;-75
2022/01/22 04:10:21;;;;;;;22.98;18.35;;;;;;;3.49;91.06;103293.22;5038594;28;20585;-74
2022/01/22 04:12:54;;;;;;;29.77;17.75;;;;;;;3.48;91.44;103292.34;5035320;28;20029;-75
2022/01/22 04:15:23;;;;;;;22.98;17.75;;;;;;;3.47;91.11;103287.94;5036856;28;20036;-74
2022/01/22 04:25:58;;;;;;;34.28;21.58;;;;;;;3.45;91.29;103293.06;5043823;28;20102;-75
2022/01/22 04:28:24;;;;;;;28.45;18.98;;;;;;;3.48;91.58;103287.16;5062908;28;20086;-75
2022/01/22 04:30:49;;;;;;;36.75;19.98;;;;;;;3.49;91.43;103288.03;5009874;28;20120;-76
2022/01/22 04:33:14;;;;;;;24.92;19.33;;;;;;;3.49;91.85;103286.31;5016989;28;20033;-76
2022/01/22 04:35:42;;;;;;;28.50;19.20;;;;;;;3.50;91.76;103284.66;5018498;28;20370;-76
2022/01/22 04:38:09;;;;;;;29.10;20.08;;;;;;;3.49;91.32;103283.72;5018854;28;20063;-75
2022/01/22 04:40:34;;;;;;;31.38;20.52;;;;;;;3.50;91.35;103289.81;5011596;28;20472;-75
2022/01/22 04:43:02;;;;;;;40.45;22.67;;;;;;;3.49;91.77;103283.72;5035735;28;20047;-76
2022/01/22 04:56:08;;;;;;;39.65;21.05;;;;;;;3.52;91.99;103293.38;5049572;28;20095;-76
2022/01/22 04:58:33;;;;;;;30.67;21.25;;;;;;;3.52;92.06;103303.75;5016423;28;20478;-75
2022/01/22 05:00:59;;;;;;;31.00;20.77;;;;;;;3.51;92.05;103300.28;5016660;28;20033;-76
2022/01/22 05:03:25;;;;;;;31.73;21.48;;;;;;;3.52;92.17;103298.56;5041823;28;20025;-76
2022/01/22 05:05:50;;;;;;;28.23;21.73;;;;;;;3.53;91.71;103297.78;4998976;28;20030;-76
2022/01/22 05:08:15;;;;;;;36.45;24.15;;;;;;;3.53;92.01;103290.00;5018301;28;20094;-76
2022/01/22 05:10:41;;;;;;;34.00;20.73;;;;;;;3.53;91.53;103290.00;5013120;28;20025;-76
2022/01/22 05:13:06;;;;;;;30.88;22.08;;;;;;;3.55;91.80;103283.19;5011633;28;20423;-76
2022/01/22 05:15:32;;;;;;;31.85;21.52;;;;;;;3.54;92.26;103277.13;5017439;28;20416;-75
2022/01/22 05:17:57;;;;;;;38.00;22.35;;;;;;;3.54;91.77;103273.66;5017173;28;20025;-76
2022/01/22 05:20:28;;;;;;;40.75;23.90;;;;;;;3.55;92.30;103272.81;5017989;28;20056;-76
2022/01/22 05:25:23;;;;;;;40.10;22.77;;;;;;;3.56;92.33;103272.03;5039988;28;20044;-76
2022/01/22 05:33:16;;;;;;;34.67;23.58;;;;;;;3.57;92.46;103273.81;5041636;28;20106;-76
2022/01/22 05:38:21;;;;;;;40.15;24.27;;;;;;;3.58;92.10;103279.09;4966772;28;20074;-76
2022/01/22 05:40:46;;;;;;;41.95;24.23;;;;;;;3.57;92.53;103273.81;5010929;28;20378;-77
2022/01/22 05:43:12;;;;;;;35.08;24.10;;;;;;;3.57;91.94;103274.69;5002401;28;20029;-76
2022/01/22 05:45:37;;;;;;;33.22;24.85;;;;;;;3.57;92.14;103274.69;5031855;28;20102;-76
2022/01/22 05:48:03;;;;;;;40.15;24.25;;;;;;;3.58;92.36;103278.19;5033200;28;20089;-76
2022/01/22 05:52:58;;;;;;;41.30;24.70;;;;;;;3.60;92.47;103286.94;5009326;28;20032;-75
2022/01/22 06:00:37;;;;;;;39.95;24.70;;;;;;;3.60;92.17;103287.81;5031741;28;20040;-76
2022/01/22 06:03:04;;;;;;;36.45;26.30;;;;;;;3.61;92.41;103287.03;5032834;28;20024;-76
2022/01/22 06:05:30;;;;;;;42.72;25.90;;;;;;;3.62;92.37;103287.91;5033180;28;20116;-76
2022/01/22 06:07:55;;;;;;;38.92;26.50;;;;;;;3.63;93.02;103292.28;5033801;28;20608;-76
2022/01/22 06:10:27;;;;;;;33.65;23.70;;;;;;;3.63;92.99;103292.28;5017549;28;20438;-76
2022/01/22 06:15:21;;;;;;;40.97;28.00;;;;;;;3.64;92.84;103288.91;5045199;28;20397;-76
2022/01/22 06:17:46;;;;;;;40.70;26.25;;;;;;;3.63;92.93;103284.53;5053663;28;20048;-75
2022/01/22 06:20:13;;;;;;;51.25;26.80;;;;;;;3.63;93.14;103280.25;5034531;28;20055;-74
2022/01/22 06:22:40;;;;;;;38.97;26.48;;;;;;;3.64;92.37;103287.19;5014905;28;20128;-75
2022/01/22 06:25:06;;;;;;;37.83;25.25;;;;;;;3.64;92.79;103284.59;5017086;28;20112;-76
2022/01/22 06:27:32;;;;;;;40.13;26.70;;;;;;;3.67;92.57;103283.88;5020190;28;20044;-75
2022/01/22 06:29:58;;;;;;;42.60;27.90;;;;;;;3.66;92.74;103281.22;5001734;28;20029;-76
2022/01/22 06:32:23;;;;;;;41.25;26.95;;;;;;;3.68;93.02;103288.28;5028078;28;20036;-75
2022/01/22 06:34:49;;;;;;;39.28;26.88;;;;;;;3.69;93.06;103297.81;4999489;28;20025;-75
2022/01/22 06:37:15;;;;;;;39.85;27.20;;;;;;;3.71;92.66;103295.34;5028207;28;20132;-76
2022/01/22 06:42:25;;;;;;;40.88;27.00;;;;;;;3.71;93.34;103303.13;5049402;28;20083;-78
2022/01/22 06:44:54;;;;;;;42.65;25.50;;;;;;;3.71;93.40;103300.53;5034084;28;20052;-77
2022/01/22 06:47:19;;;;;;;43.05;27.15;;;;;;;3.71;92.64;103301.41;5034015;28;20021;-75
2022/01/22 06:49:45;;;;;;;44.42;26.73;;;;;;;3.73;93.04;103304.97;5000832;28;20051;-77
2022/01/22 06:52:10;;;;;;;56.92;27.45;;;;;;;3.75;92.82;103313.75;4999876;28;20024;-76
2022/01/22 06:54:35;;;;;;;38.25;25.38;;;;;;;3.74;93.24;103301.56;5000351;28;20025;-76
2022/01/22 06:57:01;;;;;;;41.70;25.50;;;;;;;3.74;93.27;103309.34;5025490;28;20029;-76
2022/01/22 06:59:27;;;;;;;50.20;27.23;;;;;;;3.76;92.89;103312.03;5036151;28;20041;-76
2022/01/22 07:01:54;;;;;;;38.17;23.58;;;;;;;3.76;93.40;103304.25;5023723;28;20412;-76
2022/01/22 07:04:21;;;;;;;36.28;27.02;;;;;;;3.77;93.14;103312.13;5014288;28;20036;-76
2022/01/22 07:06:46;;;;;;;44.13;25.98;;;;;;;3.79;93.26;103314.78;5014415;28;20029;-75
2022/01/22 07:09:12;;;;;;;48.40;25.00;;;;;;;3.79;92.95;103315.72;4997237;28;20029;-76
2022/01/22 07:11:37;;;;;;;39.20;26.05;;;;;;;3.79;93.09;103320.91;5032329;28;20074;-75
2022/01/22 07:14:03;;;;;;;42.33;25.30;;;;;;;3.81;93.17;103318.38;4998809;28;20397;-76
2022/01/22 07:16:29;;;;;;;35.53;25.00;;;;;;;3.81;93.57;103323.56;5013609;28;20464;-75
2022/01/22 07:18:59;;;;;;;43.42;24.92;;;;;;;3.80;92.71;103327.84;5016727;28;20493;-75
2022/01/22 07:21:28;;;;;;;31.73;23.23;;;;;;;3.85;93.04;103335.00;5016353;28;20037;-75
2022/01/22 07:26:22;;;;;;;30.25;20.13;;;;;;;3.86;92.98;103337.69;5030076;28;20053;-75
2022/01/22 07:28:48;;;;;;;36.72;21.98;;;;;;;3.87;93.39;103343.78;5017145;28;20078;-75
2022/01/22 07:31:13;;;;;;;40.67;22.27;;;;;;;3.90;93.15;103350.00;5033609;28;20421;-75
2022/01/22 07:33:38;;;;;;;47.03;25.38;;;;;;;3.90;93.12;103344.81;5015464;28;20021;-75
2022/01/22 07:36:05;;;;;;;35.70;22.05;;;;;;;3.90;92.79;103357.78;5016506;28;20207;-75
2022/01/22 07:38:30;;;;;;;37.28;22.55;;;;;;;3.91;92.75;103350.94;5033318;28;20036;-75
2022/01/22 07:40:56;;;;;;;33.83;22.45;;;;;;;3.91;93.11;103357.00;5018252;28;20024;-75
2022/01/22 07:43:21;;;;;;;33.00;20.73;;;;;;;3.94;92.77;103361.47;5034245;28;20021;-75
2022/01/22 07:45:47;;;;;;;40.80;23.27;;;;;;;3.94;92.88;103354.56;5033275;28;20052;-75
2022/01/22 07:48:12;;;;;;;38.63;22.50;;;;;;;3.93;92.80;103362.28;5032397;28;20492;-75
2022/01/22 07:50:38;;;;;;;32.35;22.48;;;;;;;3.94;92.75;103358.88;5000191;28;20044;-75
2022/01/22 07:53:03;;;;;;;32.80;21.42;;;;;;;3.96;92.87;103359.84;5038854;28;20043;-75
2022/01/22 07:55:30;;;;;;;32.53;21.77;;;;;;;3.96;92.45;103355.53;5000591;28;20029;-75
2022/01/22 07:57:58;;;;;;;29.92;19.95;;;;;;;3.97;92.47;103356.44;5032379;28;20029;-75
2022/01/22 08:00:23;;;;;;;34.97;21.90;;;;;;;4.01;92.50;103347.13;5015716;28;20032;-75
2022/01/22 08:02:49;;;;;;;47.03;20.60;;;;;;;4.01;92.85;103352.31;5031455;28;20025;-75
2022/01/22 08:05:15;;;;;;;33.55;21.50;;;;;;;4.04;92.80;103352.47;5033221;28;20051;-75
2022/01/22 08:07:44;;;;;;;29.75;19.77;;;;;;;4.05;92.51;103344.81;5014323;28;20116;-76
2022/01/22 08:10:12;;;;;;;35.03;19.90;;;;;;;4.05;92.39;103343.88;5034336;28;20083;-76
2022/01/22 08:12:38;;;;;;;31.17;18.92;;;;;;;4.09;93.09;103348.44;5021055;28;20032;-75
2022/01/22 08:15:09;;;;;;;36.25;20.83;;;;;;;4.09;92.92;103346.72;5035712;28;20029;-75
2022/01/22 08:17:35;;;;;;;38.63;20.25;;;;;;;4.10;92.36;103348.53;5036748;28;20055;-75
2022/01/22 08:20:00;;;;;;;28.77;19.17;;;;;;;4.12;92.61;103352.13;5019200;28;20025;-75
2022/01/22 08:22:26;;;;;;;38.65;20.65;;;;;;;4.15;92.90;103347.09;5020134;28;20025;-76
2022/01/22 08:24:54;;;;;;;34.58;23.27;;;;;;;4.18;92.80;103354.16;5005056;28;20021;-75
2022/01/22 08:29:49;;;;;;;38.08;21.55;;;;;;;4.21;92.40;103356.00;5035309;28;20120;-76
2022/01/22 08:48:01;;;;;;;36.83;21.60;;;;;;;4.37;92.39;103358.66;5091427;28;20079;-73
2022/01/22 08:50:26;;;;;;;33.67;22.92;;;;;;;4.39;92.58;103362.19;5047655;28;20021;-75
2022/01/22 08:52:52;;;;;;;33.22;20.83;;;;;;;4.41;92.73;103360.59;5043422;28;20501;-75
2022/01/22 08:55:17;;;;;;;30.65;21.15;;;;;;;4.45;92.56;103370.34;5042428;28;20455;-75
2022/01/22 08:57:45;;;;;;;37.72;21.08;;;;;;;4.47;92.55;103370.44;5073681;28;20028;-75
2022/01/22 09:00:11;;;;;;;40.90;22.58;;;;;;;4.46;92.23;103374.72;5061502;28;20032;-75
2022/01/22 09:02:36;;;;;;;32.05;21.25;;;;;;;4.49;92.52;103374.88;5071278;28;20387;-75
2022/01/22 09:05:02;;;;;;;31.77;20.67;;;;;;;4.50;92.44;103376.66;5080208;28;20424;-75
2022/01/22 09:07:28;;;;;;;35.65;20.20;;;;;;;4.53;92.23;103378.53;5079708;28;20032;-75
2022/01/22 09:09:53;;;;;;;44.42;22.30;;;;;;;4.57;92.11;103376.97;5063174;28;20034;-75
2022/01/22 09:12:19;;;;;;;31.73;20.25;;;;;;;4.58;91.98;103378.78;5063063;28;20031;-75
2022/01/22 09:14:46;;;;;;;36.80;22.38;;;;;;;4.59;92.21;103380.56;5092764;28;20036;-75
2022/01/22 09:17:12;;;;;;;32.38;19.88;;;;;;;4.63;92.22;103382.53;5093577;28;20094;-76
2022/01/22 09:19:38;;;;;;;28.60;19.65;;;;;;;4.65;91.75;103389.56;5089906;28;20466;-75
2022/01/22 09:22:06;;;;;;;31.83;19.08;;;;;;;4.68;92.44;103387.16;5096498;28;20045;-75
2022/01/22 09:24:32;;;;;;;40.58;20.55;;;;;;;4.68;91.72;103381.06;5093503;28;20372;-75
2022/01/22 09:27:04;;;;;;;29.40;18.90;;;;;;;4.72;92.16;103382.13;5092590;28;20080;-75
2022/01/22 09:29:30;;;;;;;33.53;21.33;;;;;;;4.75;92.15;103377.09;5090755;28;20036;-75
2022/01/22 09:31:56;;;;;;;30.60;20.70;;;;;;;4.78;91.82;103385.91;5095127;28;20045;-75
2022/01/22 09:34:21;;;;;;;32.67;20.95;;;;;;;4.81;91.43;103383.50;5075670;28;20085;-75
2022/01/22 09:36:47;;;;;;;31.98;20.40;;;;;;;4.83;91.65;103387.06;5075778;28;20032;-75
2022/01/22 09:39:12;;;;;;;32.90;18.02;;;;;;;4.86;91.32;103392.44;5078790;28;20076;-75
2022/01/22 09:41:38;;;;;;;31.65;19.10;;;;;;;4.88;91.50;103396.81;5096133;28;20027;-75
2022/01/22 09:44:05;;;;;;;33.60;18.13;;;;;;;4.91;91.74;103405.66;5096260;28;20027;-75
2022/01/22 09:46:31;;;;;;;32.10;18.88;;;;;;;4.94;91.61;103405.84;5095447;28;20048;-75
2022/01/22 09:48:56;;;;;;;32.17;18.75;;;;;;;4.95;91.10;103410.19;5071947;28;20035;-75
2022/01/22 09:51:23;;;;;;;25.80;17.33;;;;;;;4.99;91.33;103413.88;5094332;28;20062;-71
2022/01/22 09:53:48;;;;;;;23.73;17.40;;;;;;;5.00;91.19;103410.47;5088183;28;20040;-71
2022/01/22 09:56:20;;;;;;;31.23;17.27;;;;;;;5.03;90.93;103421.03;5057426;28;20063;-72
2022/01/22 09:58:46;;;;;;;30.33;16.60;;;;;;;5.06;91.08;103412.47;5087351;28;20211;-71
2022/01/22 10:01:28;;;;;;;23.65;15.82;;;;;;;5.13;91.08;103423.28;5091372;28;20025;-72
2022/01/22 10:03:59;;;;;;;30.75;15.57;;;;;;;5.13;91.39;103412.88;5093702;28;20119;-71
2022/01/22 10:06:28;;;;;;;31.00;15.98;;;;;;;5.15;90.38;103419.03;5091959;28;20024;-72
2022/01/22 10:09:11;;;;;;;19.48;14.85;;;;;;;5.17;90.15;103420.03;5092000;28;20051;-71
2022/01/22 10:11:36;;;;;;;22.98;16.52;;;;;;;5.16;90.03;103412.16;5069104;28;20040;-72
2022/01/22 10:14:05;;;;;;;29.92;16.88;;;;;;;5.18;90.15;103416.59;5074535;28;20127;-72
2022/01/22 10:16:36;;;;;;;28.27;16.73;;;;;;;5.19;90.20;103413.19;5050750;28;20062;-71
2022/01/22 10:19:18;;;;;;;;;;;;;;;5.28;90.05;103412.78;5088749;28;20103;-71
2022/01/22 10:21:43;;;;;;;24.90;14.93;;;;;;;5.24;89.86;103418.63;5081076;28;19911;-72
2022/01/22 10:24:38;;;;;;;31.13;16.88;;;;;;;5.26;89.76;103424.81;5092723;28;20038;-71
2022/01/22 10:27:33;;;;;;;27.35;14.10;;;;;;;5.29;90.20;103424.09;5092275;28;20530;-71
2022/01/22 10:30:16;;;;;;;30.10;15.98;;;;;;;5.29;89.72;103424.09;5094132;28;20410;-72
2022/01/22 10:32:49;;;;;;;37.05;17.35;;;;;;;5.31;89.81;103418.13;5071455;28;20037;-71
2022/01/22 10:35:18;;;;;;;27.63;14.57;;;;;;;5.31;89.98;103415.53;5086307;28;20414;-71
2022/01/22 10:37:43;;;;;;;20.20;13.85;;;;;;;5.34;89.65;103417.41;5078238;28;20031;-72
2022/01/22 10:40:28;;;;;;;23.48;13.68;;;;;;;5.37;89.83;103418.47;5075892;28;20042;-71
2022/01/22 10:43:33;;;;;;;22.70;13.55;;;;;;;5.41;89.62;103413.41;5081422;28;20139;-72
2022/01/22 10:46:20;;;;;;;24.90;13.43;;;;;;;5.40;89.62;103416.81;5100017;28;20055;-71
2022/01/22 10:49:00;;;;;;;22.50;13.38;;;;;;;5.42;89.09;103426.50;5063451;28;20364;-71
2022/01/22 10:51:30;;;;;;;23.15;14.43;;;;;;;5.41;89.36;103429.91;5050761;28;20507;-71
2022/01/22 10:54:00;;;;;;;32.00;16.40;;;;;;;5.44;89.27;103430.06;5069037;28;20036;-71
2022/01/22 10:56:27;;;;;;;28.25;16.23;;;;;;;5.44;89.33;103432.66;5062718;28;20032;-71
2022/01/22 10:59:00;;;;;;;27.80;17.67;;;;;;;5.44;89.64;103434.38;5063553;28;20476;-71
2022/01/22 11:01:44;;;;;;;26.58;15.30;;;;;;;5.44;89.38;103439.56;5045720;28;20119;-71
2022/01/22 11:04:15;;;;;;;23.48;15.00;;;;;;;5.42;89.01;103433.41;5072909;28;20476;-71
2022/01/22 11:06:48;;;;;;;25.13;14.05;;;;;;;5.43;89.02;103435.19;5072382;28;20024;-71
2022/01/22 11:09:16;;;;;;;26.48;16.10;;;;;;;5.43;89.21;103427.38;5057264;28;20024;-71
2022/01/22 11:11:42;;;;;;;20.48;14.02;;;;;;;5.44;89.19;103422.25;5074352;28;20036;-71
2022/01/22 11:14:10;;;;;;;25.48;14.63;;;;;;;5.45;89.09;103410.16;5037949;28;20029;-72
2022/01/22 11:16:41;;;;;;;20.13;14.00;;;;;;;5.46;89.34;103410.22;5064172;28;21149;-72
2022/01/22 11:19:17;;;;;;;23.77;14.80;;;;;;;5.46;89.34;103410.22;5074380;28;20046;-72
2022/01/22 11:21:48;;;;;;;27.52;16.25;;;;;;;5.47;89.13;103406.78;5073696;28;20123;-72
2022/01/22 11:24:33;;;;;;;25.02;16.50;;;;;;;5.50;89.60;103396.56;5074490;28;20024;-71
2022/01/22 11:27:01;;;;;;;23.17;15.65;;;;;;;5.50;89.56;103396.56;5069383;28;20475;-72
2022/01/22 11:29:36;;;;;;;24.45;16.70;;;;;;;5.50;89.15;103398.25;5041913;28;20050;-71
2022/01/22 11:32:08;;;;;;;24.98;17.13;;;;;;;5.51;89.18;103400.94;5074224;28;20016;-72
2022/01/22 11:34:35;;;;;;;24.55;15.70;;;;;;;5.53;89.66;103404.53;5061324;28;20127;-72
2022/01/22 11:37:17;;;;;;;24.25;15.18;;;;;;;5.53;89.40;103401.00;5053912;28;20078;-71
2022/01/22 11:39:45;;;;;;;27.33;16.33;;;;;;;5.52;89.48;103402.72;5054094;28;20036;-71
2022/01/22 11:42:11;;;;;;;25.98;16.33;;;;;;;5.53;89.57;103401.91;5037890;28;20545;-71
2022/01/22 11:44:50;;;;;;;27.50;16.35;;;;;;;5.55;90.01;103402.00;5053905;28;20028;-71
2022/01/22 11:47:20;;;;;;;25.60;17.27;;;;;;;5.57;89.41;103404.66;5066176;28;20527;-72
2022/01/22 11:50:09;;;;;;;23.90;15.70;;;;;;;5.59;89.76;103413.44;5084384;28;20032;-72
2022/01/22 11:52:38;;;;;;;27.23;16.33;;;;;;;5.54;89.57;103414.09;5094666;28;20114;-71
2022/01/22 11:55:11;;;;;;;28.42;16.00;;;;;;;5.55;89.69;103408.06;5059729;28;20114;-72
2022/01/22 11:57:41;;;;;;;25.30;17.20;;;;;;;5.55;89.80;103409.81;5074705;28;20082;-71
2022/01/22 12:00:29;;;;;;;36.95;18.50;;;;;;;5.58;90.34;103409.06;5083273;28;20486;-72
2022/01/22 12:03:06;;;;;;;23.13;16.83;;;;;;;5.55;90.06;103407.19;5089436;28;20031;-71
2022/01/22 12:05:32;;;;;;;28.75;18.55;;;;;;;5.55;90.25;103404.59;5074481;28;20028;-71
2022/01/22 12:07:59;;;;;;;27.35;17.50;;;;;;;5.56;89.79;103409.00;5065352;28;20051;-71
2022/01/22 12:10:42;;;;;;;30.58;18.23;;;;;;;5.57;90.02;103405.56;5056969;28;20093;-71
2022/01/22 12:16:11;;;;;;;27.17;18.95;;;;;;;5.61;89.95;103399.69;5095055;28;20456;-71
2022/01/22 12:18:40;;;;;;;23.20;17.75;;;;;;;5.61;89.61;103397.09;5077558;28;20024;-71
2022/01/22 12:23:31;;;;;;;29.60;17.20;;;;;;;5.63;90.29;103391.97;5095515;28;20073;-71
2022/01/22 12:25:59;;;;;;;26.35;17.20;;;;;;;5.62;90.02;103395.41;5093666;28;20043;-71
2022/01/22 12:28:45;;;;;;;25.20;18.52;;;;;;;5.62;90.12;103403.22;5077265;28;20028;-71
2022/01/22 12:31:15;;;;;;;27.05;17.67;;;;;;;5.58;89.60;103398.66;5078285;28;20043;-71
2022/01/22 12:33:41;;;;;;;29.42;19.60;;;;;;;5.57;90.05;103399.47;5057475;28;20036;-71
2022/01/22 12:36:07;;;;;;;32.22;19.85;;;;;;;5.56;90.03;103406.41;5087295;28;20040;-71
2022/01/22 12:38:46;;;;;;;27.15;19.58;;;;;;;5.53;89.55;103404.53;5103372;28;20023;-71
2022/01/22 12:44:08;;;;;;;34.53;20.45;;;;;;;5.57;90.21;103399.47;5095602;28;20059;-71
2022/01/22 12:46:35;;;;;;;29.02;19.58;;;;;;;5.54;90.40;103397.59;5096715;28;20047;-71
2022/01/22 12:49:06;;;;;;;29.90;19.30;;;;;;;5.54;90.23;103403.69;5097322;28;20080;-71
2022/01/22 12:51:32;;;;;;;30.70;20.58;;;;;;;5.53;90.27;103407.13;5092892;27;20375;-71
2022/01/22 12:53:58;;;;;;;25.98;20.08;;;;;;;5.49;91.07;103399.97;5080429;28;20122;-72
2022/01/22 12:59:08;;;;;;;33.70;22.05;;;;;;;5.49;90.06;103412.09;5114416;28;20627;-72
2022/01/22 13:01:42;;;;;;;35.55;21.60;;;;;;;5.47;90.33;103413.72;5096298;28;20115;-71
2022/01/22 13:04:09;;;;;;;34.97;22.00;;;;;;;5.47;90.47;103414.59;5079894;28;20126;-71
2022/01/22 13:06:40;;;;;;;31.98;21.38;;;;;;;5.47;90.35;103406.78;5074811;28;20028;-71
2022/01/22 13:09:06;;;;;;;27.88;22.08;;;;;;;5.47;90.63;103406.78;5096456;28;20038;-72
2022/01/22 13:11:33;;;;;;;32.28;22.75;;;;;;;5.46;90.57;103401.50;5095154;28;20383;-72
2022/01/22 13:13:59;;;;;;;36.65;23.08;;;;;;;5.45;90.41;103405.84;5079921;28;20034;-71
2022/01/22 13:16:25;;;;;;;33.42;22.48;;;;;;;5.44;90.38;103403.16;5092921;28;20529;-72
2022/01/22 13:18:58;;;;;;;35.60;23.55;;;;;;;5.44;90.41;103397.97;5062345;28;20027;-71
2022/01/22 13:21:34;;;;;;;36.90;23.30;;;;;;;5.43;90.45;103407.47;5096097;28;20436;-72
2022/01/22 13:24:10;;;;;;;32.70;21.98;;;;;;;5.43;90.63;103407.47;5095495;28;20051;-71
2022/01/22 13:27:15;;;;;;;35.83;22.58;;;;;;;5.44;90.23;103409.25;5095523;28;20024;-71
2022/01/22 13:29:41;;;;;;;37.20;22.83;;;;;;;5.43;90.62;103414.38;5112987;28;20061;-72
2022/01/22 13:32:28;;;;;;;32.30;23.58;;;;;;;5.44;90.52;103404.03;5094084;28;20031;-71
2022/01/22 13:48:28;;;;;;;32.58;23.77;;;;;;;5.44;90.81;103401.44;5089359;28;20028;-72
2022/01/22 13:50:54;;;;;;;41.70;24.88;;;;;;;5.45;90.29;103402.34;5089717;28;20483;-71
2022/01/22 13:53:20;;;;;;;40.70;23.77;;;;;;;5.46;90.07;103401.50;5066893;28;20071;-72
2022/01/22 13:56:07;;;;;;;34.53;23.55;;;;;;;5.44;90.52;103391.03;5065072;28;20118;-72